Doctortown, Georgia
Current Conditions -  °F | °C
As of 5:35 PM on Sunday 23 Nov 2014 (Local Time) from KJES Reporting Station
Broken Clouds Broken Clouds  
Wind Chill: 73°   Ceiling: 9500
Heat Index: 73°   Visibility: 7mi
Dew Point: 72°   Wind: 3mph
Humidity: 94%   Direction: 170°S
Pressure: 29.82"   Gusts: NA
Location:  31.5041°N, 81.8277°W
Report Text: KJES 232235Z AUTO 17003KT 7SM SCT025 SCT060 BKN095 23/22 A2982 RMK AO2
Loading
Personal Weather Stations






























Interactive Weather Map New forecast layout! Learn more

10-Day Weather Forecast

Advertisements
Track Severe Weather on mobile